Capitol Logistics 1134


EDDM
Franz Josef Strauss International Airport
Munich, DE
EBLG
Liège Airport
Liege, BE

Activity Log

Date Flight Route Aircraft Duration
02/23/2020 CPX1134 INPU2N INPUD Y102 UPALA UL610 BATTY T855 LNO LNO4X B738 1h 15m
11/12/2019 CPX734 INPU3E INPUD Y102 UPALA UL610 BATTY T855 LNO LNO4X B738 1h 05m
10/31/2019 CPX734 Not Available B738 1h 17m

Route Details

Aircraft Information
Primary: Boeing 737-800BCF
Backup: Not Available
Route Data
Distance: 282nm
Sched. Duration: 1h 05m
Avg. Duration: 1h 12m (+8m)
Times Flown: 3
Recm'd Route: Not Available
Planned Altitude: 34,000ft
Origin Wx: EDDM 071520Z 08009KT 050V110 CAVOK 21/02 Q1027 NOSIG
Dest. Wx: EBLG 071520Z 04010KT CAVOK 20/10 Q1028 NOSIG
Notes:

Financial History
Total Freight: 123,552lbs
Average Load: 41,184lbs/flt
Fuel Used: 19,330lbs
Avg. Fuel Used: 6,443lbs/flt
Fuel Expense: $15,464
Avg. Fuel Expense: $5,155
Avg. Fuel Cost: $0.80/lbs
Total Gross Income: $262,205
Pilot Pay: $687
Total Expenses: $28,474
Total Revenue: $217,418
Average Revenue: $87,401.60